createdAt,value
2023-08-31T00:00:15.121Z,99816.38
2023-08-31T00:02:44.654Z,99822.13
2023-08-31T00:05:16.931Z,99822.03
2023-08-31T00:07:47.616Z,99824.63
2023-08-31T00:10:18.415Z,99831.50
2023-08-31T00:12:47.990Z,99829.56
2023-08-31T00:15:17.583Z,99821.50
2023-08-31T00:17:47.173Z,99823.59
2023-08-31T00:20:20.104Z,99821.81
2023-08-31T00:22:49.693Z,99821.50
2023-08-31T00:25:19.429Z,99817.22
2023-08-31T00:27:49.743Z,99829.25
2023-08-31T00:30:19.304Z,99822.38
2023-08-31T00:32:49.005Z,99817.28
2023-08-31T00:35:21.248Z,99809.66
2023-08-31T00:37:52.389Z,99805.16
2023-08-31T00:40:22.119Z,99815.38
2023-08-31T00:42:52.941Z,99821.56
2023-08-31T00:45:23.424Z,99809.25
2023-08-31T00:47:53.358Z,99812.16
2023-08-31T00:50:26.026Z,99817.41
2023-08-31T00:52:55.599Z,99818.44
2023-08-31T00:55:25.523Z,99809.81
2023-08-31T00:57:56.720Z,99816.31
2023-08-31T01:00:27.546Z,99820.44
2023-08-31T01:03:02.395Z,99821.72
2023-08-31T01:05:39.160Z,99823.53
2023-08-31T01:08:15.388Z,99830.88
2023-08-31T01:10:47.945Z,99833.53
2023-08-31T01:13:18.681Z,99827.81
2023-08-31T01:15:49.816Z,99824.09
2023-08-31T01:18:20.189Z,99812.03
2023-08-31T01:20:56.844Z,99811.50
2023-08-31T01:23:26.512Z,99809.06
2023-08-31T01:25:58.636Z,99812.63
2023-08-31T01:28:28.513Z,99805.03
2023-08-31T01:30:58.540Z,99810.06
2023-08-31T01:33:28.121Z,99805.47
2023-08-31T01:35:57.666Z,99813.63
2023-08-31T01:38:31.361Z,99818.94
2023-08-31T01:41:04.695Z,99818.88
2023-08-31T01:43:34.797Z,99816.59
2023-08-31T01:46:05.225Z,99820.16
2023-08-31T01:48:34.917Z,99829.69
2023-08-31T01:51:05.016Z,99820.66
2023-08-31T01:53:34.604Z,99824.16
2023-08-31T01:56:07.404Z,99830.22
2023-08-31T01:58:37.033Z,99836.28
2023-08-31T02:01:06.613Z,99835.44
2023-08-31T02:03:36.429Z,99840.69
2023-08-31T02:06:06.209Z,99833.94
2023-08-31T02:08:36.165Z,99838.34
2023-08-31T02:11:08.310Z,99838.22
2023-08-31T02:13:38.196Z,99842.19
2023-08-31T02:16:08.152Z,99849.84
2023-08-31T02:18:37.751Z,99854.03
2023-08-31T02:21:08.752Z,99855.34
2023-08-31T02:23:38.091Z,99852.66
2023-08-31T02:26:10.233Z,99844.75
2023-08-31T02:28:39.761Z,99854.13
2023-08-31T02:31:09.383Z,99854.94
2023-08-31T02:33:38.985Z,99857.81
2023-08-31T02:36:08.842Z,99856.94
2023-08-31T02:38:38.557Z,99856.13
2023-08-31T02:41:10.708Z,99866.44
2023-08-31T02:43:40.452Z,99866.34
2023-08-31T02:46:10.112Z,99852.22
2023-08-31T02:48:40.280Z,99851.28
2023-08-31T02:51:10.174Z,99870.00
2023-08-31T02:53:39.814Z,99857.47
2023-08-31T02:56:11.943Z,99866.50
2023-08-31T02:58:41.777Z,99868.69
2023-08-31T03:01:12.892Z,99865.19
2023-08-31T03:03:42.614Z,99865.56
2023-08-31T03:06:12.574Z,99865.09
2023-08-31T03:08:42.250Z,99865.66
2023-08-31T03:11:15.568Z,99864.75
2023-08-31T03:13:45.201Z,99865.19
2023-08-31T03:16:14.748Z,99863.69
2023-08-31T03:18:44.356Z,99872.50
2023-08-31T03:21:13.886Z,99868.78
2023-08-31T03:23:43.456Z,99867.41
2023-08-31T03:26:15.721Z,99866.03
2023-08-31T03:28:45.313Z,99873.78
2023-08-31T03:31:14.960Z,99867.41
2023-08-31T03:33:44.692Z,99868.06
2023-08-31T03:36:14.393Z,99867.50
2023-08-31T03:38:43.956Z,99857.91
2023-08-31T03:41:16.288Z,99867.06
2023-08-31T03:43:45.852Z,99876.53
2023-08-31T03:46:15.411Z,99881.16
2023-08-31T03:48:45.020Z,99879.31
2023-08-31T03:51:14.684Z,99889.41
2023-08-31T03:53:45.340Z,99894.44
2023-08-31T03:56:17.517Z,99899.44
2023-08-31T03:58:47.109Z,99904.22
2023-08-31T04:01:16.722Z,99903.69
2023-08-31T04:03:46.444Z,99910.97
2023-08-31T04:06:16.006Z,99910.63
2023-08-31T04:08:45.591Z,99909.72
2023-08-31T04:11:17.718Z,99912.75
2023-08-31T04:13:47.294Z,99903.72
2023-08-31T04:16:16.883Z,99905.88
2023-08-31T04:18:48.890Z,99918.28
2023-08-31T04:21:18.445Z,99915.19
2023-08-31T04:23:48.118Z,99920.50
2023-08-31T04:26:21.637Z,99920.84
2023-08-31T04:28:51.214Z,99922.00
2023-08-31T04:31:20.799Z,99919.78
2023-08-31T04:33:54.795Z,99926.59
2023-08-31T04:36:24.478Z,99928.22
2023-08-31T04:38:54.249Z,99928.31
2023-08-31T04:41:26.446Z,99932.03
2023-08-31T04:43:55.987Z,99936.31
2023-08-31T04:46:25.568Z,99938.78
2023-08-31T04:48:55.162Z,99947.09
2023-08-31T04:51:34.272Z,99943.72
2023-08-31T04:54:04.138Z,99946.84
2023-08-31T04:56:36.831Z,99948.72
2023-08-31T04:59:06.738Z,99949.28
2023-08-31T05:01:36.288Z,99952.41
2023-08-31T05:04:06.616Z,99956.78
2023-08-31T05:06:36.234Z,99959.00
2023-08-31T05:09:07.289Z,99965.22
2023-08-31T05:11:39.254Z,99965.91
2023-08-31T05:14:09.039Z,99967.97
2023-08-31T05:16:38.693Z,99974.66
2023-08-31T05:19:08.856Z,99977.59
2023-08-31T05:21:38.431Z,99998.41
2023-08-31T05:24:08.945Z,99991.69
2023-08-31T05:26:41.113Z,99997.81
2023-08-31T05:29:10.800Z,99996.72
2023-08-31T05:31:40.502Z,100007.31
2023-08-31T05:34:10.169Z,100004.88
2023-08-31T05:36:39.787Z,100007.75
2023-08-31T05:39:10.156Z,100007.53
2023-08-31T05:41:44.212Z,100012.88
2023-08-31T05:44:13.958Z,100017.72
2023-08-31T05:46:46.297Z,100019.44
2023-08-31T05:49:15.930Z,100021.38
2023-08-31T05:51:45.522Z,100021.16
2023-08-31T05:54:15.638Z,100020.47
2023-08-31T05:56:49.197Z,100020.38
2023-08-31T05:59:18.817Z,100027.22
2023-08-31T06:01:48.415Z,100027.81
2023-08-31T06:04:18.076Z,100026.03
2023-08-31T06:06:48.974Z,100039.00
2023-08-31T06:09:18.788Z,100027.41
2023-08-31T06:11:50.988Z,100038.59
2023-08-31T06:14:20.776Z,100034.66
2023-08-31T06:16:50.962Z,100036.13
2023-08-31T06:19:20.575Z,100041.03
2023-08-31T06:21:50.167Z,100042.63
2023-08-31T06:24:19.773Z,100043.78
2023-08-31T06:26:53.220Z,100035.28
2023-08-31T06:29:22.847Z,100056.91
2023-08-31T06:31:52.469Z,100045.88
2023-08-31T06:34:22.192Z,100049.91
2023-08-31T06:36:51.762Z,100052.09
2023-08-31T06:39:21.525Z,100050.03
2023-08-31T06:41:53.802Z,100042.16
2023-08-31T06:44:23.418Z,100047.09
2023-08-31T06:46:53.065Z,100051.94
2023-08-31T06:49:23.354Z,100051.06
2023-08-31T06:51:55.247Z,100050.56
2023-08-31T06:54:24.872Z,100057.66
2023-08-31T06:56:57.074Z,100062.22
2023-08-31T06:59:26.737Z,100062.38
2023-08-31T07:01:56.422Z,100065.28
2023-08-31T07:04:26.033Z,100060.47
2023-08-31T07:06:55.655Z,100066.63
2023-08-31T07:09:25.340Z,100066.19
2023-08-31T07:11:57.560Z,100065.81
2023-08-31T07:14:27.395Z,100066.75
2023-08-31T07:16:57.126Z,100067.88
2023-08-31T07:19:26.843Z,100064.06
2023-08-31T07:21:56.476Z,100066.91
2023-08-31T07:24:26.599Z,100064.22
2023-08-31T07:26:58.788Z,100063.06
2023-08-31T07:29:29.435Z,100063.31
2023-08-31T07:31:59.017Z,100057.00
2023-08-31T07:34:29.002Z,100052.44
2023-08-31T07:36:58.666Z,100058.84
2023-08-31T07:39:28.771Z,100056.38
2023-08-31T07:42:01.176Z,100062.56
2023-08-31T07:44:30.790Z,100055.44
2023-08-31T07:47:00.618Z,100056.94
2023-08-31T07:49:30.424Z,100064.44
2023-08-31T07:52:00.037Z,100060.19
2023-08-31T07:54:29.850Z,100074.44
2023-08-31T07:57:02.036Z,100075.50
2023-08-31T07:59:31.686Z,100074.72
2023-08-31T08:02:01.521Z,100075.28
2023-08-31T08:04:31.188Z,100078.50
2023-08-31T08:07:00.807Z,100068.28
2023-08-31T08:09:31.059Z,100073.09
2023-08-31T08:12:03.601Z,100074.69
2023-08-31T08:14:33.614Z,100079.56
2023-08-31T08:17:03.233Z,100076.34
2023-08-31T08:19:32.823Z,100081.13
2023-08-31T08:22:02.482Z,100081.94
2023-08-31T08:24:32.115Z,100080.63
2023-08-31T08:27:04.305Z,100085.16
2023-08-31T08:29:33.953Z,100084.44
2023-08-31T08:32:05.177Z,100086.84
2023-08-31T08:34:35.052Z,100093.53
2023-08-31T08:37:04.952Z,100089.19
2023-08-31T08:39:34.556Z,100085.78
2023-08-31T08:42:08.495Z,100100.22
2023-08-31T08:44:38.066Z,100099.38
2023-08-31T08:47:07.713Z,100096.94
2023-08-31T08:49:37.650Z,100102.47
2023-08-31T08:52:10.198Z,100111.72
2023-08-31T08:54:40.688Z,100101.97
2023-08-31T08:57:12.976Z,100115.25
2023-08-31T08:59:42.584Z,100107.41
2023-08-31T09:02:12.451Z,100104.81
2023-08-31T09:04:42.071Z,100105.06
2023-08-31T09:07:11.688Z,100105.19
2023-08-31T09:09:52.982Z,100108.25
2023-08-31T09:12:26.293Z,100105.78
2023-08-31T09:15:02.634Z,100109.50
2023-08-31T09:17:41.601Z,100108.53
2023-08-31T09:20:13.212Z,100106.44
2023-08-31T09:22:46.061Z,100109.97
2023-08-31T09:25:15.832Z,100108.09
2023-08-31T09:27:48.708Z,100104.00
2023-08-31T09:30:18.533Z,100113.88
2023-08-31T09:32:48.148Z,100116.34
2023-08-31T09:35:21.974Z,100116.34
2023-08-31T09:37:59.873Z,100106.91
2023-08-31T09:40:29.760Z,100107.44
2023-08-31T09:43:01.956Z,100105.84
2023-08-31T09:48:07.536Z,100112.56
2023-08-31T09:50:37.762Z,100111.22
2023-08-31T09:53:08.168Z,100108.59
2023-08-31T09:55:37.876Z,100108.34
2023-08-31T09:58:16.079Z,100100.78
2023-08-31T10:00:46.579Z,100109.09
2023-08-31T10:03:19.227Z,100096.41
2023-08-31T10:05:50.735Z,100105.06
2023-08-31T10:08:20.681Z,100097.00
2023-08-31T10:10:50.348Z,100095.88
2023-08-31T10:13:22.531Z,100091.25
2023-08-31T10:15:52.270Z,100095.25
2023-08-31T10:18:21.834Z,100091.16
2023-08-31T10:20:51.451Z,100082.94
2023-08-31T10:23:21.037Z,100094.53
2023-08-31T10:26:06.203Z,100093.00
2023-08-31T10:28:43.564Z,100084.63
2023-08-31T10:31:11.286Z,100091.22
2023-08-31T10:33:44.490Z,100097.19
2023-08-31T10:36:15.598Z,100094.88
2023-08-31T10:38:45.791Z,100092.09
2023-08-31T10:41:26.014Z,100106.38
2023-08-31T10:43:59.308Z,100100.53
2023-08-31T10:46:32.829Z,100099.47
2023-08-31T10:49:04.281Z,100098.34
2023-08-31T10:51:34.516Z,100092.41
2023-08-31T10:54:11.656Z,100096.34
2023-08-31T10:56:57.737Z,100094.31
2023-08-31T10:59:31.288Z,100093.38
2023-08-31T11:02:02.176Z,100090.69
2023-08-31T11:04:32.075Z,100096.72
2023-08-31T11:07:17.406Z,100096.34
2023-08-31T11:09:47.386Z,100094.84
2023-08-31T11:12:17.198Z,100097.13
2023-08-31T11:14:49.393Z,100102.31
2023-08-31T11:17:18.960Z,100095.28
2023-08-31T11:19:48.573Z,100098.44
2023-08-31T11:22:18.228Z,100099.25
2023-08-31T11:24:47.894Z,100095.81
2023-08-31T11:27:17.515Z,100091.66
2023-08-31T11:29:49.766Z,100100.22
2023-08-31T11:32:19.354Z,100103.66
2023-08-31T11:34:49.002Z,100103.81
2023-08-31T11:37:21.237Z,100096.63
2023-08-31T11:39:54.762Z,100099.50
2023-08-31T11:42:25.120Z,100090.72
2023-08-31T11:44:57.404Z,100090.75
2023-08-31T11:47:26.989Z,100087.28
2023-08-31T11:49:56.596Z,100089.84
2023-08-31T11:52:26.171Z,100090.75
2023-08-31T11:54:56.223Z,100091.69
2023-08-31T11:57:29.752Z,100093.66
2023-08-31T12:00:02.390Z,100080.94
2023-08-31T12:02:31.972Z,100080.81
2023-08-31T12:05:01.606Z,100088.53
2023-08-31T12:07:31.210Z,100098.31
2023-08-31T12:10:06.529Z,100085.31
2023-08-31T12:12:37.829Z,100090.44
2023-08-31T12:15:10.665Z,100084.38
2023-08-31T12:17:44.740Z,100083.44
2023-08-31T12:20:15.458Z,100090.97
2023-08-31T12:22:45.056Z,100091.03
2023-08-31T12:25:14.672Z,100101.09
2023-08-31T12:27:44.450Z,100088.97
2023-08-31T12:30:17.357Z,100094.34
2023-08-31T12:32:46.985Z,100081.16
2023-08-31T12:35:16.868Z,100085.16
2023-08-31T12:37:46.596Z,100080.19
2023-08-31T12:40:16.447Z,100089.16
2023-08-31T12:42:46.874Z,100082.19
2023-08-31T12:45:20.447Z,100084.66
2023-08-31T12:47:50.813Z,100078.13
2023-08-31T12:50:21.067Z,100084.94
2023-08-31T12:52:50.735Z,100088.69
2023-08-31T12:55:21.010Z,100085.06
2023-08-31T12:57:50.652Z,100076.81
2023-08-31T13:00:23.562Z,100084.00
2023-08-31T13:02:54.193Z,100079.47
2023-08-31T13:05:23.960Z,100073.94
2023-08-31T13:07:53.556Z,100073.16
2023-08-31T13:10:23.339Z,100074.97
2023-08-31T13:12:52.933Z,100073.47
2023-08-31T13:15:25.174Z,100062.06
2023-08-31T13:17:54.808Z,100078.38
2023-08-31T13:20:24.450Z,100083.16
2023-08-31T13:22:54.056Z,100074.50
2023-08-31T13:25:25.241Z,100068.00
2023-08-31T13:27:56.184Z,100073.84
2023-08-31T13:30:28.807Z,100074.53
2023-08-31T13:32:59.504Z,100076.13
2023-08-31T13:35:29.249Z,100072.78
2023-08-31T13:37:58.879Z,100069.81
2023-08-31T13:40:28.733Z,100075.66
2023-08-31T13:43:02.337Z,100078.78
2023-08-31T13:45:34.805Z,100086.53
2023-08-31T13:48:05.591Z,100078.84
2023-08-31T13:50:34.974Z,100082.75
2023-08-31T13:53:04.720Z,100075.91
2023-08-31T13:55:35.987Z,100081.41
2023-08-31T13:58:08.027Z,100087.84
2023-08-31T14:00:40.214Z,100073.25
2023-08-31T14:03:10.067Z,100080.22
2023-08-31T14:05:39.749Z,100083.25
2023-08-31T14:08:09.837Z,100069.81
2023-08-31T14:10:43.485Z,100073.72
2023-08-31T14:13:13.044Z,100059.50
2023-08-31T14:15:48.290Z,100064.88
2023-08-31T14:18:18.159Z,100067.59
2023-08-31T14:20:48.006Z,100062.47
2023-08-31T14:23:17.644Z,100062.25
2023-08-31T14:25:47.232Z,100056.28
2023-08-31T14:28:16.843Z,100060.38
2023-08-31T14:30:49.002Z,100056.22
2023-08-31T14:33:20.281Z,100066.09
2023-08-31T14:35:49.828Z,100059.38
2023-08-31T14:38:23.795Z,100068.47
2023-08-31T14:40:53.375Z,100072.66
2023-08-31T14:43:23.033Z,100065.69
2023-08-31T14:45:55.210Z,100070.59
2023-08-31T14:48:24.819Z,100082.69
2023-08-31T14:50:54.361Z,100065.78
2023-08-31T14:53:24.335Z,100064.56
2023-08-31T14:55:53.936Z,100071.09
2023-08-31T14:58:23.539Z,100058.50
2023-08-31T15:00:58.805Z,100065.91
2023-08-31T15:03:28.591Z,100066.22
2023-08-31T15:05:58.265Z,100070.06
2023-08-31T15:08:40.002Z,100076.28
2023-08-31T15:11:09.661Z,100079.03
2023-08-31T15:13:39.194Z,100077.97
2023-08-31T15:16:11.392Z,100077.16
2023-08-31T15:18:40.953Z,100083.63
2023-08-31T15:21:10.578Z,100084.19
2023-08-31T15:23:40.340Z,100084.69
2023-08-31T15:26:09.905Z,100081.41
2023-08-31T15:28:39.477Z,100088.13
2023-08-31T15:31:11.670Z,100089.47
2023-08-31T15:33:41.284Z,100078.19
2023-08-31T15:36:11.456Z,100081.94
2023-08-31T15:38:41.268Z,100081.63
2023-08-31T15:41:11.034Z,100079.13
2023-08-31T15:43:41.083Z,100077.78
2023-08-31T15:46:13.465Z,100075.75
2023-08-31T15:48:43.066Z,100073.88
2023-08-31T15:51:13.013Z,100081.16
2023-08-31T15:53:42.743Z,100078.22
2023-08-31T15:56:12.313Z,100075.84
2023-08-31T15:58:42.319Z,100080.13
2023-08-31T16:01:15.548Z,100086.06
2023-08-31T16:03:45.140Z,100079.88
2023-08-31T16:06:15.452Z,100088.47
2023-08-31T16:08:45.135Z,100089.63
2023-08-31T16:11:14.846Z,100086.72
2023-08-31T16:13:44.413Z,100086.47
2023-08-31T16:16:16.637Z,100088.56
2023-08-31T16:18:46.543Z,100096.13
2023-08-31T16:21:16.183Z,100095.91
2023-08-31T16:23:45.756Z,100098.84
2023-08-31T16:26:15.298Z,100094.03
2023-08-31T16:28:44.846Z,100092.94
2023-08-31T16:31:17.329Z,100099.13
2023-08-31T16:33:46.963Z,100103.38
2023-08-31T16:36:16.546Z,100100.69
2023-08-31T16:38:46.085Z,100096.66
2023-08-31T16:41:15.634Z,100095.03
2023-08-31T16:43:45.433Z,100090.69
2023-08-31T16:46:18.623Z,100092.09
2023-08-31T16:48:48.198Z,100093.16
2023-08-31T16:51:18.328Z,100088.03
2023-08-31T16:53:49.481Z,100090.69
2023-08-31T16:56:19.732Z,100092.13
2023-08-31T16:58:49.314Z,100092.91
2023-08-31T17:01:21.452Z,100092.91
2023-08-31T17:03:51.221Z,100100.72
2023-08-31T17:06:20.899Z,100099.97
2023-08-31T17:08:51.760Z,100100.81
2023-08-31T17:11:21.079Z,100106.72
2023-08-31T17:13:50.641Z,100111.00
2023-08-31T17:16:22.881Z,100116.13
2023-08-31T17:18:52.649Z,100112.63
2023-08-31T17:21:22.201Z,100111.00
2023-08-31T17:23:51.754Z,100115.59
2023-08-31T17:26:24.880Z,100121.22
2023-08-31T17:28:54.533Z,100130.63
2023-08-31T17:31:27.310Z,100131.69
2023-08-31T17:33:58.796Z,100135.47
2023-08-31T17:36:28.559Z,100133.00
2023-08-31T17:38:58.093Z,100132.97
2023-08-31T17:41:27.983Z,100145.59
2023-08-31T17:43:57.548Z,100149.38
2023-08-31T17:46:31.629Z,100155.03
2023-08-31T17:49:01.217Z,100153.97
2023-08-31T17:51:30.871Z,100166.00
2023-08-31T17:54:01.009Z,100152.78
2023-08-31T17:56:32.158Z,100168.66
2023-08-31T17:59:01.765Z,100169.19
2023-08-31T18:01:34.810Z,100167.25
2023-08-31T18:04:04.735Z,100163.47
2023-08-31T18:06:34.876Z,100166.72
2023-08-31T18:09:05.879Z,100173.41
2023-08-31T18:11:35.197Z,100158.94
2023-08-31T18:14:04.839Z,100155.69
2023-08-31T18:16:37.033Z,100158.97
2023-08-31T18:19:07.278Z,100160.28
2023-08-31T18:21:36.838Z,100164.44
2023-08-31T18:24:08.892Z,100165.44
2023-08-31T18:26:38.455Z,100174.78
2023-08-31T18:29:08.109Z,100172.59
2023-08-31T18:31:42.427Z,100178.41
2023-08-31T18:34:12.231Z,100172.09
2023-08-31T18:36:42.205Z,100182.03
2023-08-31T18:39:11.788Z,100175.84
2023-08-31T18:41:41.732Z,100178.47
2023-08-31T18:44:11.306Z,100187.38
2023-08-31T18:46:43.558Z,100200.19
2023-08-31T18:49:13.256Z,100199.72
2023-08-31T18:51:45.023Z,100198.47
2023-08-31T18:54:14.683Z,100202.56
2023-08-31T18:56:44.292Z,100200.63
2023-08-31T18:59:13.934Z,100197.94
2023-08-31T19:01:46.847Z,100205.25
2023-08-31T19:04:17.772Z,100215.19
2023-08-31T19:06:47.322Z,100218.03
2023-08-31T19:09:16.856Z,100220.50
2023-08-31T19:11:46.439Z,100219.28
2023-08-31T19:14:16.010Z,100223.38
2023-08-31T19:16:48.211Z,100222.59
2023-08-31T19:19:18.119Z,100232.22
2023-08-31T19:21:47.677Z,100222.81
2023-08-31T19:24:17.234Z,100229.81
2023-08-31T19:26:46.787Z,100242.41
2023-08-31T19:29:16.377Z,100237.97
2023-08-31T19:31:48.622Z,100242.34
2023-08-31T19:34:18.354Z,100235.91
2023-08-31T19:36:48.066Z,100237.56
2023-08-31T19:39:17.671Z,100232.94
2023-08-31T19:41:47.234Z,100241.06
2023-08-31T19:44:16.795Z,100226.03
2023-08-31T19:46:55.489Z,100233.59
2023-08-31T19:49:25.753Z,100233.13
2023-08-31T19:51:55.319Z,100220.13
2023-08-31T19:54:24.943Z,100217.44
2023-08-31T19:56:54.555Z,100208.13
2023-08-31T19:59:24.106Z,100209.00
2023-08-31T20:01:57.150Z,100214.69
2023-08-31T20:04:26.795Z,100221.97
2023-08-31T20:06:56.424Z,100223.31
2023-08-31T20:09:27.879Z,100223.38
2023-08-31T20:11:57.586Z,100222.09
2023-08-31T20:14:27.202Z,100218.59
2023-08-31T20:17:00.031Z,100221.97
2023-08-31T20:19:29.638Z,100229.94
2023-08-31T20:21:59.405Z,100220.28
2023-08-31T20:24:28.953Z,100215.59
2023-08-31T20:26:58.752Z,100220.56
2023-08-31T20:29:28.372Z,100218.97
2023-08-31T20:32:00.761Z,100222.78
2023-08-31T20:34:30.403Z,100222.34
2023-08-31T20:37:03.758Z,100228.28
2023-08-31T20:39:33.788Z,100227.47
2023-08-31T20:42:03.542Z,100227.78
2023-08-31T20:44:33.583Z,100231.28
2023-08-31T20:47:06.049Z,100233.97
2023-08-31T20:49:35.683Z,100232.88
2023-08-31T20:52:05.263Z,100233.97
2023-08-31T20:54:34.911Z,100224.09
2023-08-31T20:57:05.249Z,100222.63
2023-08-31T20:59:35.370Z,100225.72
2023-08-31T21:02:07.696Z,100234.41
2023-08-31T21:04:37.465Z,100222.06
2023-08-31T21:07:07.453Z,100225.03
2023-08-31T21:09:37.066Z,100224.78
2023-08-31T21:12:07.048Z,100215.41
2023-08-31T21:14:36.751Z,100223.59
2023-08-31T21:17:08.975Z,100221.81
2023-08-31T21:19:38.572Z,100218.69
2023-08-31T21:22:08.138Z,100221.91
2023-08-31T21:24:37.989Z,100228.16
2023-08-31T21:27:07.978Z,100227.44
2023-08-31T21:29:37.644Z,100223.94
2023-08-31T21:32:10.032Z,100217.84
2023-08-31T21:34:37.047Z,100212.63
2023-08-31T21:37:06.939Z,100202.41
2023-08-31T21:39:36.593Z,100203.84
2023-08-31T21:42:06.496Z,100208.31
2023-08-31T21:44:36.107Z,100211.09
2023-08-31T21:47:05.666Z,100209.53
2023-08-31T21:49:38.074Z,100212.50
2023-08-31T21:52:11.231Z,100204.69
2023-08-31T21:54:44.160Z,100205.56
2023-08-31T21:57:13.913Z,100209.44
2023-08-31T21:59:43.753Z,100205.66
2023-08-31T22:02:14.965Z,100203.59
2023-08-31T22:04:47.396Z,100205.66
2023-08-31T22:07:17.201Z,100204.97
2023-08-31T22:09:48.471Z,100204.38
2023-08-31T22:12:19.373Z,100202.44
2023-08-31T22:14:49.393Z,100205.88
2023-08-31T22:17:19.101Z,100201.59
2023-08-31T22:19:51.558Z,100200.00
2023-08-31T22:22:21.614Z,100206.09
2023-08-31T22:24:51.376Z,100203.13
2023-08-31T22:27:21.130Z,100199.84
2023-08-31T22:29:50.841Z,100201.88
2023-08-31T22:32:20.636Z,100196.06
2023-08-31T22:34:52.803Z,100198.69
2023-08-31T22:37:22.365Z,100190.72
2023-08-31T22:39:51.937Z,100188.66
2023-08-31T22:42:21.493Z,100189.69
2023-08-31T22:44:51.057Z,100186.69
2023-08-31T22:47:20.627Z,100182.91
2023-08-31T22:49:55.463Z,100191.28
2023-08-31T22:52:25.056Z,100185.88
2023-08-31T22:54:56.346Z,100197.16
2023-08-31T22:57:26.132Z,100184.50
2023-08-31T22:59:55.845Z,100189.25
2023-08-31T23:02:28.757Z,100184.38
2023-08-31T23:05:00.991Z,100191.59
2023-08-31T23:07:30.742Z,100203.47
2023-08-31T23:10:00.725Z,100203.81
2023-08-31T23:12:30.416Z,100197.00
2023-08-31T23:15:00.003Z,100205.22
2023-08-31T23:17:29.607Z,100195.81
2023-08-31T23:20:01.816Z,100198.28
2023-08-31T23:22:31.414Z,100196.19
2023-08-31T23:25:01.041Z,100185.75
2023-08-31T23:27:32.274Z,100194.88
2023-08-31T23:30:01.996Z,100192.13
2023-08-31T23:32:31.598Z,100186.91
2023-08-31T23:35:03.808Z,100180.31
2023-08-31T23:37:33.390Z,100193.69
2023-08-31T23:40:05.729Z,100182.41
2023-08-31T23:42:35.645Z,100180.06
2023-08-31T23:45:05.283Z,100177.63
2023-08-31T23:47:34.941Z,100186.56
2023-08-31T23:50:07.937Z,100177.78
2023-08-31T23:52:37.567Z,100189.88
2023-08-31T23:55:07.624Z,100193.53
2023-08-31T23:57:37.322Z,100175.41
